sim
Sign-in with your pilot id or email,
or register
Callsign
Passwort

Schedule Details

Flight Number: DLH475 (3)
Departure: Montreal Pierre Elliott Trudeau Airport (CYUL) at 00:45
Arrival: Munich Airport (EDDM) at 08:25
Route: Lufthansa Passenger Schedule. Enter filed route here before submitting Pirep.

Weather Information
Getting current METAR information for CYUL 262200Z 15006KT 15SM SCT180 BKN250 25/15 A2988 RMK AC4CI3 CC ASOCTD SLP119 DENSITY ALT 1400FT
Getting current METAR information for EDDM 262220Z 23017KT 9999 SCT022 BKN031 07/04 Q1002 NOSIG

Schedule Frequency

Route Map